Time;durP1;ratioP1;P1;durP2;ratioP2;P2;SDS_P1;SDS_P2;PMS_P1;PMS_P2;Temp;Humidity;BMP_temperature;BMP_pressure;BME280_temperature;BME280_humidity;BME280_pressure;Samples;Min_cycle;Max_cycle;Signal;HPM_P1;HPM_P2
2022/05/09 00:01:58;;;;;;;2.97;1.70;;;;;;;14.85;54.21;101814.63;4992928;28;102110;-85
2022/05/09 00:04:26;;;;;;;3.83;1.92;;;;;;;14.85;54.16;101811.09;4996517;28;102219;-85
2022/05/09 00:06:53;;;;;;;32.77;30.97;;;;;;;14.85;54.05;101811.09;4994443;28;103876;-85
2022/05/09 00:09:19;;;;;;;4.65;2.17;;;;;;;14.84;54.18;101809.44;4990371;28;102454;-85
2022/05/09 00:11:46;;;;;;;2.83;2.03;;;;;;;14.84;54.29;101814.94;4986309;28;102054;-85
2022/05/09 00:14:13;;;;;;;2.72;1.95;;;;;;;14.84;54.45;101806.72;4996713;28;102097;-85
2022/05/09 00:16:41;;;;;;;2.42;2.08;;;;;;;14.84;54.53;101804.78;4995739;28;104170;-85
2022/05/09 00:19:09;;;;;;;1.75;1.65;;;;;;;14.83;54.69;101802.34;4995482;28;102581;-86
2022/05/09 00:21:39;;;;;;;2.88;1.92;;;;;;;14.85;54.46;101805.59;4998364;28;102078;-85
2022/05/09 00:24:09;;;;;;;3.40;1.92;;;;;;;14.84;54.49;101807.53;4996599;28;102639;-85
2022/05/09 00:26:35;;;;;;;2.33;2.08;;;;;;;14.84;54.42;101806.72;4995732;28;103913;-85
2022/05/09 00:29:03;;;;;;;3.13;1.98;;;;;;;14.84;54.27;101803.97;4993331;28;102120;-85
2022/05/09 00:31:30;;;;;;;2.47;1.65;;;;;;;14.84;54.53;101793.00;4997738;28;102408;-85
2022/05/09 00:33:59;;;;;;;2.85;1.90;;;;;;;14.84;54.47;101798.50;4992581;28;102316;-85
2022/05/09 00:36:25;;;;;;;3.65;2.00;;;;;;;14.82;54.54;101795.19;4976943;28;103883;-85
2022/05/09 00:38:53;;;;;;;2.90;2.10;;;;;;;14.82;54.48;101796.03;4994080;28;101928;-85
2022/05/09 00:41:31;;;;;;;2.20;1.50;;;;;;;14.82;54.38;101793.28;4995393;28;102150;-86
2022/05/09 00:43:59;;;;;;;2.92;2.00;;;;;;;14.82;54.63;101795.19;4987249;28;102118;-85
2022/05/09 00:46:28;;;;;;;1.88;1.63;;;;;;;14.83;54.26;101796.84;4996279;28;103705;-84
2022/05/09 00:48:56;;;;;;;3.35;1.90;;;;;;;14.82;54.46;101795.19;4996100;28;101941;-84
2022/05/09 00:51:26;;;;;;;2.80;1.92;;;;;;;14.82;54.36;101789.69;4996468;28;102150;-85
2022/05/09 00:53:56;;;;;;;2.33;2.13;;;;;;;14.81;54.60;101786.13;4997491;28;102168;-84
2022/05/09 00:56:27;;;;;;;2.65;1.77;;;;;;;14.82;54.68;101789.69;4989063;28;103964;-85
2022/05/09 00:58:58;;;;;;;2.75;1.83;;;;;;;14.81;54.54;101788.88;4998043;28;102267;-85
2022/05/09 01:01:24;;;;;;;3.03;1.85;;;;;;;14.81;54.72;101788.06;4998434;28;102468;-85
2022/05/09 01:04:01;;;;;;;2.47;2.20;;;;;;;14.81;54.55;101793.53;4999337;28;102165;-85
2022/05/09 01:06:28;;;;;;;3.00;2.20;;;;;;;14.81;54.50;101796.28;4996770;28;103944;-84
2022/05/09 01:08:57;;;;;;;2.33;1.65;;;;;;;14.81;54.46;101799.03;4990327;28;102261;-84
2022/05/09 01:11:27;;;;;;;2.70;2.00;;;;;;;14.81;54.76;101793.53;4997856;28;101952;-85
2022/05/09 01:13:57;;;;;;;2.13;1.60;;;;;;;14.80;54.65;101790.00;4985079;28;102673;-85
2022/05/09 01:16:25;;;;;;;2.28;1.65;;;;;;;14.81;54.62;101797.09;4997718;28;103795;-85
2022/05/09 01:18:52;;;;;;;2.15;1.70;;;;;;;14.81;54.95;101782.59;4996134;28;102438;-84
2022/05/09 01:21:32;;;;;;;3.47;2.13;;;;;;;14.80;54.91;101791.91;4995066;28;102395;-85
2022/05/09 01:23:58;;;;;;;1.92;1.58;;;;;;;14.80;54.65;101780.94;4995786;28;102121;-86
2022/05/09 01:26:26;;;;;;;2.33;1.77;;;;;;;14.80;54.68;101786.44;4995025;28;103836;-86
2022/05/09 01:28:57;;;;;;;2.08;1.80;;;;;;;14.79;54.73;101773.84;4994376;28;102385;-85
2022/05/09 01:31:25;;;;;;;2.00;1.65;;;;;;;14.79;54.78;101777.38;4993592;28;102543;-85
2022/05/09 01:33:53;;;;;;;2.97;2.25;;;;;;;14.79;55.02;101773.84;4994464;28;102321;-86
2022/05/09 01:36:25;;;;;;;2.28;1.77;;;;;;;14.80;54.91;101775.47;4992878;28;103828;-85
2022/05/09 01:38:57;;;;;;;2.45;2.05;;;;;;;14.79;54.81;101776.56;4994039;28;102024;-85
2022/05/09 01:41:25;;;;;;;8.32;2.33;;;;;;;14.79;54.85;101776.56;4989154;28;102228;-85
2022/05/09 01:43:55;;;;;;;2.30;1.90;;;;;;;14.79;54.80;101776.56;4994239;28;102430;-86
2022/05/09 01:46:25;;;;;;;2.40;1.77;;;;;;;14.79;55.22;101782.06;4979880;28;104069;-86
2022/05/09 01:51:40;;;;;;;2.10;1.90;;;;;;;14.79;55.14;101790.28;4993302;28;102647;-85
2022/05/09 01:54:09;;;;;;;3.47;2.08;;;;;;;14.78;55.02;101783.13;4984732;28;102277;-85
2022/05/09 01:56:37;;;;;;;4.55;2.33;;;;;;;14.78;55.13;101777.66;4974037;28;103927;-85
2022/05/09 01:59:06;;;;;;;2.33;1.87;;;;;;;14.78;54.81;101777.66;4986764;28;101960;-85
2022/05/09 02:01:37;;;;;;;2.78;2.13;;;;;;;14.78;54.93;101777.66;4992329;28;102218;-84
2022/05/09 02:04:04;;;;;;;2.58;2.10;;;;;;;14.78;55.12;101772.16;4994538;28;102076;-85
2022/05/09 02:06:31;;;;;;;2.40;2.00;;;;;;;14.77;54.95;101776.81;4992000;28;104012;-87
2022/05/09 02:08:58;;;;;;;3.38;2.10;;;;;;;14.78;55.02;101783.13;4994420;28;102072;-86
2022/05/09 02:11:29;;;;;;;1.95;1.58;;;;;;;14.77;54.80;101776.81;4981786;28;101949;-86
2022/05/09 02:13:56;;;;;;;2.22;1.88;;;;;;;14.78;55.25;101783.13;4994405;28;102390;-86
2022/05/09 02:16:23;;;;;;;2.25;1.75;;;;;;;14.78;55.13;101777.66;4994079;28;104070;-87
2022/05/09 02:18:50;;;;;;;2.60;2.10;;;;;;;14.77;55.45;101779.56;4990709;28;102704;-86
2022/05/09 02:21:16;;;;;;;2.40;1.92;;;;;;;14.76;55.00;101771.63;4990269;28;102003;-86
2022/05/09 02:23:44;;;;;;;2.45;2.00;;;;;;;14.77;55.00;101776.00;4992071;28;103485;-86
2022/05/09 02:26:10;;;;;;;3.08;1.80;;;;;;;14.77;55.04;101776.00;4987359;28;103972;-86
2022/05/09 02:28:39;;;;;;;2.30;2.10;;;;;;;14.77;55.11;101773.28;4992498;28;102413;-86
2022/05/09 02:31:06;;;;;;;3.17;2.00;;;;;;;14.77;55.20;101773.28;4993736;28;102086;-86
2022/05/09 02:33:32;;;;;;;2.95;1.58;;;;;;;14.76;55.25;101768.91;4993229;28;102163;-86
2022/05/09 02:36:00;;;;;;;2.22;1.92;;;;;;;14.77;55.00;101781.50;4991766;28;103915;-86
2022/05/09 02:38:28;;;;;;;2.28;1.85;;;;;;;14.76;55.26;101774.38;4992266;28;102777;-86
2022/05/09 02:40:55;;;;;;;2.27;1.70;;;;;;;14.76;55.33;101771.63;4987397;28;102305;-86
2022/05/09 02:43:22;;;;;;;2.42;1.80;;;;;;;14.75;55.17;101772.72;4988469;28;102467;-86
2022/05/09 02:45:50;;;;;;;1.67;1.50;;;;;;;14.76;55.38;101779.84;4992052;28;104010;-86
2022/05/09 02:48:17;;;;;;;2.08;1.88;;;;;;;14.75;55.47;101778.19;4978129;28;102339;-86
2022/05/09 02:50:43;;;;;;;2.22;1.90;;;;;;;14.75;55.40;101781.78;4992536;28;102099;-86
2022/05/09 02:53:10;;;;;;;2.22;1.52;;;;;;;14.75;55.43;101783.66;4984711;28;102014;-86
2022/05/09 02:55:39;;;;;;;2.72;2.05;;;;;;;14.75;55.15;101794.63;4988318;28;104045;-87
2022/05/09 02:58:06;;;;;;;2.53;1.88;;;;;;;14.75;55.31;101791.88;4991438;28;103292;-86
2022/05/09 03:00:33;;;;;;;2.20;1.85;;;;;;;14.75;55.43;101789.16;4992379;28;102542;-87
2022/05/09 03:05:55;;;;;;;1.70;1.50;;;;;;;14.74;55.47;101793.00;4985493;28;103919;-86
2022/05/09 03:08:24;;;;;;;1.85;1.55;;;;;;;14.74;55.26;101801.22;4991188;28;102695;-87
2022/05/09 03:10:52;;;;;;;2.95;1.65;;;;;;;14.74;55.61;101798.47;4989955;28;102498;-87
2022/05/09 03:13:18;;;;;;;2.47;2.10;;;;;;;14.74;55.27;101799.28;4995692;28;102131;-87
2022/05/09 03:15:47;;;;;;;1.92;1.55;;;;;;;14.74;55.30;101798.47;4996264;28;103856;-87
2022/05/09 03:18:17;;;;;;;2.58;1.70;;;;;;;14.74;55.49;101793.00;4996576;28;101985;-87
2022/05/09 03:20:46;;;;;;;2.17;1.73;;;;;;;14.73;55.69;101803.13;4994872;28;102043;-86
2022/05/09 03:23:12;;;;;;;1.70;1.45;;;;;;;14.74;55.54;101793.00;4992273;28;102770;-87
2022/05/09 03:25:40;;;;;;;3.28;1.73;;;;;;;14.74;55.43;101798.47;4995668;28;103975;-87
2022/05/09 03:28:08;;;;;;;1.52;1.40;;;;;;;14.74;55.72;101799.28;4995975;28;102198;-86
2022/05/09 03:30:36;;;;;;;2.05;1.85;;;;;;;14.74;55.42;101803.94;4993910;28;102436;-86
2022/05/09 03:33:03;;;;;;;1.73;1.63;;;;;;;14.74;55.74;101803.94;4996299;28;102214;-86
2022/05/09 03:35:30;;;;;;;1.70;1.60;;;;;;;14.74;55.85;101807.50;4994980;28;104217;-86
2022/05/09 03:37:57;;;;;;;3.78;1.98;;;;;;;14.74;55.66;101801.22;4996190;28;103594;-86
2022/05/09 03:40:25;;;;;;;2.47;1.60;;;;;;;14.74;55.71;101803.94;4993619;28;102034;-86
2022/05/09 03:42:52;;;;;;;1.80;1.63;;;;;;;14.75;55.42;101805.59;4997319;28;102213;-85
2022/05/09 03:45:18;;;;;;;2.33;1.80;;;;;;;14.75;55.79;101816.56;4995329;28;103884;-85
2022/05/09 03:47:45;;;;;;;2.35;1.77;;;;;;;14.75;55.61;101811.06;4996425;28;102506;-86
2022/05/09 03:50:14;;;;;;;3.53;2.00;;;;;;;14.75;55.73;101808.34;4981108;28;102428;-85
2022/05/09 03:52:42;;;;;;;2.47;1.83;;;;;;;14.75;55.61;101816.56;4997138;28;102087;-86
2022/05/09 03:55:09;;;;;;;1.87;1.53;;;;;;;14.76;55.40;101818.22;4994733;28;104278;-85
2022/05/09 03:57:44;;;;;;;3.10;1.70;;;;;;;14.75;55.40;101822.88;4996747;28;102224;-86
2022/05/09 04:00:12;;;;;;;2.40;1.83;;;;;;;14.76;55.16;101821.78;4995045;28;101953;-85
2022/05/09 04:02:38;;;;;;;1.70;1.60;;;;;;;14.76;55.27;101818.22;4996940;28;102106;-86
2022/05/09 04:05:06;;;;;;;2.05;1.50;;;;;;;14.77;55.35;101825.34;4995109;28;103814;-86
2022/05/09 04:07:33;;;;;;;3.47;1.40;;;;;;;14.77;55.36;101819.84;4995572;28;102302;-85
2022/05/09 04:10:02;;;;;;;2.92;1.95;;;;;;;14.78;55.46;101821.50;4995573;28;102116;-87
2022/05/09 04:12:28;;;;;;;3.83;2.55;;;;;;;14.77;55.66;101826.16;4986464;28;103041;-86
2022/05/09 04:17:41;;;;;;;8.30;6.07;;;;;;;14.80;55.14;101824.78;4975577;28;102151;-86
2022/05/09 04:20:09;;;;;;;10.68;7.78;;;;;;;14.80;55.62;101819.31;4982482;28;102541;-86
2022/05/09 04:22:36;;;;;;;10.32;6.07;;;;;;;14.80;55.68;101824.78;4996453;28;102328;-86
2022/05/09 04:25:05;;;;;;;7.80;4.97;;;;;;;14.81;55.61;101826.44;4980530;28;103853;-86
2022/05/09 04:27:32;;;;;;;7.22;4.57;;;;;;;14.81;55.64;101821.78;4987342;28;101923;-88
2022/05/09 04:30:00;;;;;;;6.28;4.50;;;;;;;14.82;55.64;101826.19;4977657;28;101968;-88
2022/05/09 04:32:26;;;;;;;5.60;3.72;;;;;;;14.83;55.37;101824.25;4978798;28;102397;-87
2022/05/09 04:34:53;;;;;;;4.97;3.40;;;;;;;14.83;55.48;101822.34;4975172;28;104126;-88
2022/05/09 04:37:19;;;;;;;3.67;2.75;;;;;;;14.83;55.21;101827.81;4976899;28;102476;-88
2022/05/09 04:39:47;;;;;;;5.97;3.45;;;;;;;14.84;55.69;101823.16;4986722;28;103991;-88
2022/05/09 04:42:15;;;;;;;3.50;2.80;;;;;;;14.84;55.46;101826.72;4981129;28;102110;-88
2022/05/09 04:44:41;;;;;;;4.60;3.00;;;;;;;14.86;55.61;101829.19;4981935;28;104116;-88
2022/05/09 04:47:09;;;;;;;3.20;2.60;;;;;;;14.85;55.51;101817.38;4995424;28;102353;-88
2022/05/09 04:49:37;;;;;;;3.95;2.70;;;;;;;14.87;55.44;101817.13;4992622;28;101974;-88
2022/05/09 04:52:04;;;;;;;3.45;2.67;;;;;;;14.88;55.62;101821.50;4997586;28;102365;-88
2022/05/09 04:54:32;;;;;;;3.05;2.75;;;;;;;14.89;55.72;101812.19;4995651;28;104018;-87
2022/05/09 04:56:59;;;;;;;4.05;2.53;;;;;;;14.90;55.63;101819.31;4995176;28;102103;-87
2022/05/09 04:59:27;;;;;;;2.65;2.38;;;;;;;14.91;55.51;101820.97;4995986;28;102062;-86
2022/05/09 05:01:53;;;;;;;3.95;2.75;;;;;;;14.90;55.77;101814.66;4995561;28;102148;-87
2022/05/09 05:04:20;;;;;;;3.25;2.47;;;;;;;14.93;55.65;101817.94;4994933;28;103720;-87
2022/05/09 05:06:47;;;;;;;4.65;2.47;;;;;;;14.94;55.55;101814.94;4994848;28;101796;-87
2022/05/09 05:09:13;;;;;;;4.97;2.40;;;;;;;14.94;55.48;101814.94;4994957;28;102181;-87
2022/05/09 05:11:41;;;;;;;2.90;2.25;;;;;;;14.96;55.77;101815.47;4994395;28;102171;-87
2022/05/09 05:14:07;;;;;;;2.70;2.30;;;;;;;14.98;55.81;101809.72;4995461;28;104220;-87
2022/05/09 05:19:22;;;;;;;2.90;2.55;;;;;;;15.00;55.63;101823.97;4994657;28;101976;-87
2022/05/09 05:21:48;;;;;;;3.30;2.53;;;;;;;15.02;55.71;101822.59;4986236;28;102423;-86
2022/05/09 05:24:14;;;;;;;4.47;2.33;;;;;;;15.03;55.26;101823.44;4975311;28;104134;-87
2022/05/09 05:26:41;;;;;;;3.33;2.40;;;;;;;15.04;55.56;101816.88;4994243;28;102993;-87
2022/05/09 05:29:08;;;;;;;2.95;2.30;;;;;;;15.06;55.77;101817.41;4995591;28;102246;-87
2022/05/09 05:31:36;;;;;;;2.50;2.05;;;;;;;15.07;55.61;101814.41;4995522;28;102665;-87
2022/05/09 05:34:03;;;;;;;3.40;2.55;;;;;;;15.08;55.60;101816.03;4990340;28;103749;-87
2022/05/09 05:36:29;;;;;;;3.45;2.38;;;;;;;15.10;55.71;101822.03;4995528;28;102031;-87
2022/05/09 05:38:55;;;;;;;3.40;2.30;;;;;;;15.11;55.19;101818.22;4994166;28;102386;-87
2022/05/09 05:41:24;;;;;;;3.05;1.90;;;;;;;15.12;55.21;101819.88;4995676;28;102817;-87
2022/05/09 05:43:51;;;;;;;4.10;2.38;;;;;;;15.14;55.70;101825.06;4994865;28;103863;-86
2022/05/09 05:46:19;;;;;;;3.45;2.33;;;;;;;15.16;55.49;101822.06;4994971;28;102280;-86
2022/05/09 05:48:47;;;;;;;3.10;2.38;;;;;;;15.17;55.73;101815.47;4986710;28;101999;-86
2022/05/09 05:51:14;;;;;;;2.43;2.03;;;;;;;15.19;55.37;101821.53;4976603;28;102192;-86
2022/05/09 05:53:44;;;;;;;3.40;2.35;;;;;;;15.19;55.74;101821.53;4983166;28;103885;-86
2022/05/09 05:56:11;;;;;;;3.17;2.33;;;;;;;15.21;55.65;101813.81;4996452;28;102009;-86
2022/05/09 05:58:39;;;;;;;5.35;2.22;;;;;;;15.22;55.41;101820.94;4989146;28;102465;-87
2022/05/09 06:01:05;;;;;;;2.67;2.30;;;;;;;15.24;55.52;101825.06;4993389;28;102351;-86
2022/05/09 06:03:32;;;;;;;2.17;1.98;;;;;;;15.25;55.82;101823.13;4994811;28;103934;-86
2022/05/09 06:06:00;;;;;;;2.38;2.10;;;;;;;15.26;55.18;101822.06;4993616;28;102272;-86
2022/05/09 06:08:27;;;;;;;2.67;2.20;;;;;;;15.27;55.67;101815.47;4991957;28;102430;-86
2022/05/09 06:10:53;;;;;;;2.50;2.25;;;;;;;15.28;55.37;101819.84;4994916;28;104032;-87
2022/05/09 06:13:20;;;;;;;4.13;2.30;;;;;;;15.30;55.66;101825.91;4992901;28;104004;-85
2022/05/09 06:15:47;;;;;;;3.28;2.30;;;;;;;15.32;55.87;101820.94;4986778;28;102432;-86
2022/05/09 06:18:14;;;;;;;2.78;2.05;;;;;;;15.31;55.43;101824.78;4991778;28;102424;-87
2022/05/09 06:20:43;;;;;;;2.70;2.05;;;;;;;15.33;55.72;101823.41;4997889;28;102068;-87
2022/05/09 06:23:15;;;;;;;3.17;2.35;;;;;;;15.34;55.62;101826.97;4996533;28;104091;-87
2022/05/09 06:25:44;;;;;;;2.08;1.88;;;;;;;15.36;55.57;101827.50;4997232;28;102585;-87
2022/05/09 06:28:11;;;;;;;2.28;1.88;;;;;;;15.36;55.49;101822.03;4993053;28;102227;-87
2022/05/09 06:30:39;;;;;;;2.92;2.15;;;;;;;15.39;55.45;101826.97;4981704;28;102286;-87
2022/05/09 06:33:07;;;;;;;2.65;1.80;;;;;;;15.39;55.70;101821.47;4988905;28;103906;-86
2022/05/09 06:35:39;;;;;;;2.45;1.90;;;;;;;15.41;55.73;101829.44;4977788;28;101948;-86
2022/05/09 06:38:06;;;;;;;2.72;1.83;;;;;;;15.42;55.38;101826.41;4973361;28;102044;-86
2022/05/09 06:40:38;;;;;;;2.55;1.95;;;;;;;15.41;55.41;101824.78;4973468;28;102144;-87
2022/05/09 06:43:05;;;;;;;1.90;1.70;;;;;;;15.44;55.45;101834.38;4976568;28;102939;-87
2022/05/09 06:45:33;;;;;;;1.70;1.43;;;;;;;15.44;55.42;101829.72;4980430;28;102014;-87
2022/05/09 06:48:00;;;;;;;2.25;1.83;;;;;;;15.45;55.97;101814.88;4981420;28;101988;-86
2022/05/09 06:50:30;;;;;;;2.00;1.70;;;;;;;15.45;55.69;101820.38;4977654;28;102224;-87
2022/05/09 06:52:56;;;;;;;2.03;1.67;;;;;;;15.47;55.93;101829.16;4983204;28;104989;-87
2022/05/09 06:55:23;;;;;;;3.40;2.08;;;;;;;15.47;55.88;101815.44;4994926;28;102021;-87
2022/05/09 06:57:52;;;;;;;4.35;1.90;;;;;;;15.49;55.55;101821.47;4996580;28;102419;-87
2022/05/09 07:00:22;;;;;;;2.25;1.70;;;;;;;15.50;55.86;101833.25;4993037;28;102773;-88
2022/05/09 07:02:50;;;;;;;2.00;1.80;;;;;;;15.51;55.74;101823.94;4986603;28;105016;-87
2022/05/09 07:05:20;;;;;;;2.35;1.70;;;;;;;15.52;55.73;101818.16;4986262;28;102704;-87
2022/05/09 07:07:48;;;;;;;2.40;1.73;;;;;;;15.52;55.82;101820.91;4991409;28;102261;-87
2022/05/09 07:10:17;;;;;;;2.33;1.95;;;;;;;15.52;55.59;101820.09;4994027;28;102232;-93
2022/05/09 07:12:47;;;;;;;3.03;1.47;;;;;;;15.53;55.95;101821.72;4990226;28;103929;-93
2022/05/09 07:15:18;;;;;;;1.75;1.55;;;;;;;15.54;55.81;101820.63;4998247;28;102185;-93
2022/05/09 07:17:45;;;;;;;1.90;1.67;;;;;;;15.54;55.99;101818.72;4997670;28;102067;-91
2022/05/09 07:20:12;;;;;;;2.65;2.13;;;;;;;15.55;55.94;101814.88;4998864;28;102187;-91
2022/05/09 07:22:40;;;;;;;1.98;1.50;;;;;;;15.57;56.00;101814.59;4996741;28;104126;-90
2022/05/09 07:25:08;;;;;;;2.13;1.73;;;;;;;15.57;55.42;101815.41;4997319;28;102007;-94
2022/05/09 07:27:36;;;;;;;;;;;;;;;15.58;55.76;101816.25;4998722;28;102405;-93
2022/05/09 07:30:03;;;;;;;1.75;1.65;;;;;;;15.59;55.60;101821.44;4997844;28;102559;-91
2022/05/09 07:32:31;;;;;;;1.75;1.58;;;;;;;15.59;56.00;101818.69;4991769;28;103870;-90
2022/05/09 07:34:58;;;;;;;2.13;1.70;;;;;;;15.60;55.76;101814.84;4992716;28;102300;-91
2022/05/09 07:37:25;;;;;;;3.67;1.55;;;;;;;15.60;56.14;101812.09;5011030;28;102421;-94
2022/05/09 07:39:51;;;;;;;1.90;1.38;;;;;;;15.60;55.65;101812.09;5000554;28;102491;-89
2022/05/09 07:42:17;;;;;;;1.90;1.70;;;;;;;15.61;55.70;101808.28;4991955;28;104044;-89
2022/05/09 07:44:44;;;;;;;3.20;1.80;;;;;;;15.62;55.72;101804.44;4993033;28;103157;-90
2022/05/09 07:47:11;;;;;;;1.92;1.45;;;;;;;15.62;55.84;101809.91;4991305;28;102578;-89
2022/05/09 07:49:39;;;;;;;1.80;1.60;;;;;;;15.63;56.04;101806.06;4993340;28;102278;-88
2022/05/09 07:52:08;;;;;;;2.10;1.88;;;;;;;15.63;55.78;101800.56;4995726;28;103996;-89
2022/05/09 07:54:35;;;;;;;;;;;;;;;15.65;55.76;101796.72;4988550;28;102485;-89
2022/05/09 07:57:02;;;;;;;1.85;1.58;;;;;;;15.66;55.59;101801.16;4988185;28;102689;-89
2022/05/09 07:59:29;;;;;;;2.00;1.70;;;;;;;15.65;56.13;101800.31;4978178;28;102452;-93
2022/05/09 08:01:56;;;;;;;2.58;1.52;;;;;;;15.66;55.82;101792.94;4974081;28;104031;-92
2022/05/09 08:04:22;;;;;;;1.52;1.40;;;;;;;15.68;55.75;101798.94;4976819;28;102456;-92
2022/05/09 08:06:52;;;;;;;1.70;1.60;;;;;;;15.67;55.71;101798.13;4993450;28;102409;-90
2022/05/09 08:09:18;;;;;;;;;;;;;;;15.68;55.67;101796.19;4996340;28;102640;-91
2022/05/09 08:11:45;;;;;;;1.80;1.65;;;;;;;15.68;55.98;101805.25;4987049;28;103979;-91
2022/05/09 08:14:11;;;;;;;1.60;1.23;;;;;;;15.67;56.19;101800.88;4985238;28;102781;-91
2022/05/09 08:16:40;;;;;;;2.53;1.40;;;;;;;15.69;55.81;101793.19;4995614;28;102131;-92
2022/05/09 08:19:06;;;;;;;1.55;1.45;;;;;;;15.70;55.64;101785.78;4997154;28;102180;-92
2022/05/09 08:21:33;;;;;;;1.60;1.50;;;;;;;15.69;55.82;101787.69;4994683;28;104015;-90
2022/05/09 08:24:01;;;;;;;1.50;1.40;;;;;;;15.70;55.90;101794.81;4995575;28;102424;-90
2022/05/09 08:26:28;;;;;;;2.23;1.40;;;;;;;15.70;56.07;101786.59;4994121;28;101956;-90
2022/05/09 08:28:54;;;;;;;1.65;1.42;;;;;;;15.71;55.97;101784.66;4994135;28;102172;-90
2022/05/09 08:31:21;;;;;;;2.45;1.35;;;;;;;15.70;55.91;101783.84;4995105;28;104088;-91
2022/05/09 08:33:49;;;;;;;1.65;1.30;;;;;;;15.72;55.75;101783.56;4995610;28;101907;-90
2022/05/09 08:39:03;;;;;;;1.95;1.60;;;;;;;15.73;55.77;101782.47;4996315;28;102433;-92
2022/05/09 08:41:36;;;;;;;1.40;1.25;;;;;;;15.72;55.79;101781.63;4993333;28;104169;-90
2022/05/09 08:44:15;;;;;;;1.90;1.38;;;;;;;15.73;55.69;101779.72;4993144;28;102026;-88
2022/05/09 08:46:53;;;;;;;1.90;1.50;;;;;;;15.72;56.12;101784.38;4991162;28;102752;-90
2022/05/09 08:49:35;;;;;;;2.05;1.30;;;;;;;15.73;55.93;101785.22;4976753;28;102532;-91
2022/05/09 08:52:14;;;;;;;1.65;1.55;;;;;;;15.74;55.98;101784.09;4987833;28;104014;-88
2022/05/09 08:54:46;;;;;;;1.27;1.17;;;;;;;15.73;55.72;101779.72;4974512;28;102374;-89
2022/05/09 08:57:20;;;;;;;1.88;1.40;;;;;;;15.74;55.83;101773.13;4997606;28;102458;-89
2022/05/09 08:59:53;;;;;;;2.03;1.30;;;;;;;15.74;56.33;101767.66;5003661;28;102009;-88
2022/05/09 09:02:27;;;;;;;2.13;1.50;;;;;;;15.74;56.23;101767.66;4992966;28;104000;-90
2022/05/09 09:04:56;;;;;;;1.98;1.42;;;;;;;15.74;56.02;101767.66;4993261;28;102503;-90
2022/05/09 09:07:40;;;;;;;1.23;1.00;;;;;;;15.74;56.20;101762.16;4974801;28;102141;-91
2022/05/09 09:10:17;;;;;;;1.80;1.45;;;;;;;15.75;55.77;101761.03;4975276;28;102139;-89
2022/05/09 09:12:53;;;;;;;1.60;1.10;;;;;;;15.74;56.11;101757.47;4986062;28;104139;-90
2022/05/09 09:15:30;;;;;;;1.52;1.25;;;;;;;15.75;55.82;101764.59;4995522;28;101911;-91
2022/05/09 09:18:12;;;;;;;1.57;1.40;;;;;;;15.74;56.26;101760.22;4978816;28;102426;-91
2022/05/09 09:20:56;;;;;;;10.10;1.80;;;;;;;15.75;55.73;101758.31;4975915;28;102422;-92
2022/05/09 09:23:42;;;;;;;6.32;1.30;;;;;;;15.74;56.10;101754.75;4990700;28;103896;-92
2022/05/09 09:26:21;;;;;;;3.47;1.55;;;;;;;15.75;55.86;101752.81;4977994;28;102466;-90
2022/05/09 09:28:53;;;;;;;2.55;1.40;;;;;;;15.75;56.01;101763.78;4991858;28;101928;-89
2022/05/09 09:31:26;;;;;;;1.27;1.17;;;;;;;15.75;55.93;101769.28;4984814;28;102560;-89
2022/05/09 09:33:57;;;;;;;1.10;1.00;;;;;;;15.73;55.86;101750.38;4986681;28;104122;-89
2022/05/09 09:36:33;;;;;;;1.35;1.10;;;;;;;15.74;55.98;101751.19;4994615;28;102218;-89
2022/05/09 09:39:10;;;;;;;1.38;1.13;;;;;;;15.74;56.10;101756.66;4976499;28;101932;-89
2022/05/09 09:41:38;;;;;;;2.65;1.35;;;;;;;15.73;55.95;101761.34;4989852;28;101974;-89
2022/05/09 09:44:08;;;;;;;1.30;1.20;;;;;;;15.74;56.18;101759.41;4994097;28;104144;-88
2022/05/09 09:47:10;;;;;;;1.40;1.30;;;;;;;15.73;56.10;101744.88;4994570;28;102548;-88
2022/05/09 09:49:39;;;;;;;1.50;1.20;;;;;;;15.73;55.89;101753.09;4994912;28;102305;-88
2022/05/09 09:52:19;;;;;;;;;;;;;;;15.73;56.15;101755.84;4995824;28;102588;-88
2022/05/09 09:54:55;;;;;;;1.52;1.15;;;;;;;15.73;55.76;101752.28;4985096;28;103821;-88
2022/05/09 09:57:28;;;;;;;1.88;1.17;;;;;;;15.72;56.32;101747.88;4976181;28;102066;-89
2022/05/09 09:59:57;;;;;;;1.40;1.20;;;;;;;15.72;56.34;101737.72;4982953;28;103001;-91
2022/05/09 10:02:27;;;;;;;1.10;1.00;;;;;;;15.72;56.15;101754.19;4985566;28;102383;-90
2022/05/09 10:04:55;;;;;;;1.10;1.00;;;;;;;15.73;56.20;101755.03;4974452;28;103011;-89
2022/05/09 10:07:29;;;;;;;1.67;1.02;;;;;;;15.71;56.41;101755.28;4975059;28;102525;-90
2022/05/09 10:10:10;;;;;;;2.20;1.30;;;;;;;15.71;55.99;101752.56;4979315;28;102130;-88
2022/05/09 10:12:56;;;;;;;2.55;1.38;;;;;;;15.71;56.40;101752.56;4992563;28;102382;-89
2022/05/09 10:15:27;;;;;;;1.13;1.02;;;;;;;15.70;56.22;101752.84;4981197;28;103815;-89
2022/05/09 10:17:54;;;;;;;1.60;1.30;;;;;;;15.70;56.37;101739.13;4994963;28;101904;-89
2022/05/09 10:20:32;;;;;;;2.33;1.20;;;;;;;15.69;56.33;101738.31;4990106;28;102269;-90
2022/05/09 10:26:00;;;;;;;1.20;1.02;;;;;;;15.69;56.30;101732.00;4974350;28;103703;-90
2022/05/09 10:28:31;;;;;;;1.30;1.20;;;;;;;15.68;55.89;101720.19;4975452;28;102474;-88
2022/05/09 10:31:08;;;;;;;1.40;1.08;;;;;;;15.68;56.22;101731.16;4979706;28;102178;-91
2022/05/09 10:33:43;;;;;;;1.20;1.10;;;;;;;15.67;55.77;101723.22;4976006;28;102432;-89
2022/05/09 10:36:16;;;;;;;1.55;1.45;;;;;;;15.67;55.95;101721.28;4974983;28;103946;-90
2022/05/09 10:38:48;;;;;;;1.40;1.30;;;;;;;15.67;56.35;101721.28;4981883;28;102344;-89
2022/05/09 10:41:22;;;;;;;1.40;1.30;;;;;;;15.67;56.12;101725.97;4993654;28;102141;-89
2022/05/09 10:43:56;;;;;;;1.48;1.10;;;;;;;15.66;56.30;101716.91;4988588;28;102053;-90
2022/05/09 10:46:35;;;;;;;1.30;1.20;;;;;;;15.65;56.06;101720.72;4994852;28;104056;-91
2022/05/09 10:49:06;;;;;;;;;;;;;;;15.65;56.01;101726.22;4991840;28;102537;-88
2022/05/09 10:51:40;;;;;;;1.48;1.38;;;;;;;15.65;56.21;101717.16;4977531;28;102068;-87
2022/05/09 10:54:12;;;;;;;1.83;1.30;;;;;;;15.65;56.58;101725.38;4994781;28;101983;-87
2022/05/09 10:56:44;;;;;;;1.20;1.10;;;;;;;15.65;56.09;101714.41;4981987;28;104002;-87
2022/05/09 10:59:20;;;;;;;2.20;1.27;;;;;;;15.63;56.22;101718.25;4993947;28;102375;-88
2022/05/09 11:01:52;;;;;;;4.43;1.35;;;;;;;15.64;56.45;101713.59;4994078;28;102125;-88
2022/05/09 11:04:20;;;;;;;1.42;1.33;;;;;;;15.62;56.31;101716.63;4991583;28;102059;-88
2022/05/09 11:06:53;;;;;;;1.95;1.30;;;;;;;15.63;56.05;101709.22;5001641;28;104009;-87
2022/05/09 11:09:34;;;;;;;1.10;1.00;;;;;;;15.62;56.26;101705.66;5010555;28;102427;-88
2022/05/09 11:12:17;;;;;;;1.20;1.10;;;;;;;15.61;56.49;101703.16;4996177;28;102431;-88
2022/05/09 11:14:59;;;;;;;1.40;1.20;;;;;;;15.61;56.26;101698.53;4999067;28;101907;-87
2022/05/09 11:17:43;;;;;;;1.27;1.13;;;;;;;15.61;56.13;101704.00;4997808;28;103864;-88
2022/05/09 11:20:20;;;;;;;1.92;1.17;;;;;;;15.60;56.40;101696.03;4998529;28;101858;-87
2022/05/09 11:22:54;;;;;;;2.50;1.27;;;;;;;15.61;56.62;101703.16;4977633;28;101939;-88
2022/05/09 11:25:48;;;;;;;3.47;2.75;;;;;;;15.60;56.34;101696.84;4980314;28;102576;-88
2022/05/09 11:28:36;;;;;;;0.93;0.88;;;;;;;15.59;56.51;101695.22;4996379;28;102688;-87
2022/05/09 11:31:15;;;;;;;1.80;1.10;;;;;;;15.59;56.37;101684.25;4998232;28;102398;-87
2022/05/09 11:33:58;;;;;;;1.30;1.20;;;;;;;15.58;56.47;101685.38;4996516;28;102416;-88
2022/05/09 11:36:40;;;;;;;1.25;1.15;;;;;;;15.58;56.47;101676.31;5000748;28;102259;-88
2022/05/09 11:39:15;;;;;;;2.45;1.10;;;;;;;15.57;56.07;101675.47;4997609;28;103777;-87
2022/05/09 11:41:52;;;;;;;1.88;1.42;;;;;;;15.57;56.66;101672.72;4996462;28;102204;-88
2022/05/09 11:44:21;;;;;;;1.80;1.13;;;;;;;15.57;56.44;101669.97;4992655;28;101985;-88
2022/05/09 11:47:11;;;;;;;1.08;0.98;;;;;;;15.57;56.12;101669.97;4996801;28;102138;-89
2022/05/09 11:50:03;;;;;;;1.02;0.93;;;;;;;15.57;56.32;101656.25;4992754;28;104008;-87